createdAt,value
2023-03-11T00:01:58.541Z,8.67
2023-03-11T00:05:04.725Z,8.69
2023-03-11T00:08:13.788Z,8.72
2023-03-11T00:11:20.114Z,8.75
2023-03-11T00:14:26.111Z,8.75
2023-03-11T00:17:32.071Z,8.76
2023-03-11T00:20:40.003Z,8.74
2023-03-11T00:23:46.032Z,8.74
2023-03-11T00:26:51.998Z,8.75
2023-03-11T00:29:57.959Z,8.77
2023-03-11T00:33:04.118Z,8.75
2023-03-11T00:36:21.762Z,8.72
2023-03-11T00:39:27.633Z,8.70
2023-03-11T00:42:33.465Z,8.66
2023-03-11T00:45:39.546Z,8.61
2023-03-11T00:48:45.491Z,8.56
2023-03-11T00:51:51.235Z,8.54
2023-03-11T00:54:57.006Z,8.54
2023-03-11T00:58:05.601Z,8.54
2023-03-11T01:01:13.753Z,8.51
2023-03-11T01:04:19.832Z,8.49
2023-03-11T01:07:26.185Z,8.49
2023-03-11T01:10:31.138Z,8.49
2023-03-11T01:13:37.564Z,8.47
2023-03-11T01:16:43.317Z,8.45
2023-03-11T01:19:49.276Z,8.45
2023-03-11T01:22:55.037Z,8.43
2023-03-11T01:26:01.093Z,8.44
2023-03-11T01:29:06.898Z,8.45
2023-03-11T01:32:13.533Z,8.43
2023-03-11T01:35:21.438Z,8.41
2023-03-11T01:38:27.491Z,8.39
2023-03-11T01:41:33.247Z,8.39
2023-03-11T01:44:39.101Z,8.37
2023-03-11T01:47:44.954Z,8.37
2023-03-11T01:50:52.647Z,8.38
2023-03-11T01:54:00.898Z,8.38
2023-03-11T01:57:10.625Z,8.39
2023-03-11T02:00:18.163Z,8.41
2023-03-11T02:03:29.085Z,8.42
2023-03-11T02:06:35.530Z,8.42
2023-03-11T02:09:41.854Z,8.42
2023-03-11T02:12:50.059Z,8.44
2023-03-11T02:15:56.233Z,8.46
2023-03-11T02:19:02.168Z,8.49
2023-03-11T02:22:06.588Z,8.49
2023-03-11T02:25:19.001Z,8.48
2023-03-11T02:28:27.010Z,8.48
2023-03-11T02:31:33.867Z,8.51
2023-03-11T02:34:41.139Z,8.52
2023-03-11T02:37:52.673Z,8.51
2023-03-11T02:41:00.411Z,8.49
2023-03-11T02:44:10.221Z,8.49
2023-03-11T02:47:16.800Z,8.50
2023-03-11T02:50:23.399Z,8.48
2023-03-11T02:53:33.544Z,8.44
2023-03-11T02:56:39.484Z,8.35
2023-03-11T02:59:45.339Z,8.29
2023-03-11T03:02:53.618Z,8.22
2023-03-11T03:05:59.391Z,8.14
2023-03-11T03:09:05.725Z,8.09
2023-03-11T03:12:12.141Z,8.02
2023-03-11T03:15:18.355Z,7.98
2023-03-11T03:18:22.627Z,7.95
2023-03-11T03:21:28.586Z,7.92
2023-03-11T03:24:34.454Z,7.88
2023-03-11T03:27:41.114Z,7.85
2023-03-11T03:30:47.383Z,7.81
2023-03-11T03:33:51.823Z,7.76
2023-03-11T03:36:57.676Z,7.71
2023-03-11T03:40:07.888Z,7.65
2023-03-11T03:43:13.930Z,7.61
2023-03-11T03:46:19.873Z,7.54
2023-03-11T03:49:25.701Z,7.50
2023-03-11T03:52:31.556Z,7.47
2023-03-11T03:55:37.407Z,7.43
2023-03-11T03:58:43.810Z,7.41
2023-03-11T04:01:49.674Z,7.40
2023-03-11T04:04:55.499Z,7.40
2023-03-11T04:08:02.383Z,7.39
2023-03-11T04:11:08.458Z,7.36
2023-03-11T04:14:14.404Z,7.32
2023-03-11T04:17:20.259Z,7.29
2023-03-11T04:20:26.126Z,7.28
2023-03-11T04:23:32.097Z,7.27
2023-03-11T04:26:38.032Z,7.25
2023-03-11T04:29:43.891Z,7.24
2023-03-11T04:32:49.683Z,7.21
2023-03-11T04:35:55.532Z,7.18
2023-03-11T04:39:01.559Z,7.18
2023-03-11T04:42:08.237Z,7.17
2023-03-11T04:45:15.010Z,7.15
2023-03-11T04:48:20.723Z,7.11
2023-03-11T04:51:26.526Z,7.06
2023-03-11T04:54:32.478Z,7.03
2023-03-11T04:57:38.437Z,7.02
2023-03-11T05:00:42.963Z,7.03
2023-03-11T05:03:49.100Z,7.01
2023-03-11T05:06:54.891Z,6.98
2023-03-11T05:10:00.745Z,6.98
2023-03-11T05:13:06.599Z,6.98
2023-03-11T05:16:12.312Z,6.94
2023-03-11T05:19:35.214Z,6.92
2023-03-11T05:22:41.370Z,6.90
2023-03-11T05:25:47.140Z,6.86
2023-03-11T05:28:52.866Z,6.82
2023-03-11T05:31:58.841Z,6.81
2023-03-11T05:35:05.211Z,6.81
2023-03-11T05:38:10.953Z,6.81
2023-03-11T05:41:17.025Z,6.81
2023-03-11T05:44:22.888Z,6.79
2023-03-11T05:47:28.949Z,6.77
2023-03-11T05:50:34.915Z,6.75
2023-03-11T05:53:43.460Z,6.73
2023-03-11T05:56:49.795Z,6.72
2023-03-11T05:59:54.122Z,6.69
2023-03-11T06:02:59.976Z,6.67
2023-03-11T06:06:08.601Z,6.65
2023-03-11T06:09:17.011Z,6.62
2023-03-11T06:12:22.966Z,6.61
2023-03-11T06:15:28.855Z,6.58
2023-03-11T06:18:35.028Z,6.58
2023-03-11T06:21:41.011Z,6.58
2023-03-11T06:24:46.742Z,6.58
2023-03-11T06:27:53.994Z,6.58
2023-03-11T06:31:07.578Z,6.53
2023-03-11T06:34:13.855Z,6.48
2023-03-11T06:37:18.112Z,6.39
2023-03-11T06:40:23.968Z,6.13
2023-03-11T06:43:31.491Z,5.82
2023-03-11T06:46:37.322Z,5.55
2023-03-11T06:49:43.193Z,5.33
2023-03-11T06:52:49.036Z,5.15
2023-03-11T06:56:06.894Z,4.98
2023-03-11T06:59:12.732Z,4.88
2023-03-11T07:02:19.006Z,4.82
2023-03-11T07:05:23.315Z,4.86
2023-03-11T07:08:30.401Z,4.88
2023-03-11T07:11:36.394Z,4.93
2023-03-11T07:14:42.230Z,4.99
2023-03-11T07:17:48.017Z,5.04
2023-03-11T07:20:53.719Z,5.06
2023-03-11T07:24:01.305Z,5.14
2023-03-11T07:27:07.927Z,5.24
2023-03-11T07:30:15.856Z,5.20
2023-03-11T07:33:22.826Z,5.16
2023-03-11T07:36:29.458Z,5.15
2023-03-11T07:39:35.218Z,5.16
2023-03-11T07:42:41.893Z,5.18
2023-03-11T07:45:47.863Z,5.16
2023-03-11T07:48:54.215Z,5.09
2023-03-11T07:51:58.331Z,5.04
2023-03-11T07:55:04.532Z,4.99
2023-03-11T07:58:10.385Z,4.92
2023-03-11T08:01:18.474Z,4.79
2023-03-11T08:04:24.229Z,4.68
2023-03-11T08:07:32.148Z,4.60
2023-03-11T08:10:40.754Z,4.54
2023-03-11T08:13:47.758Z,4.52
2023-03-11T08:16:53.590Z,4.50
2023-03-11T08:19:59.340Z,4.46
2023-03-11T08:23:05.200Z,4.44
2023-03-11T08:26:13.474Z,4.41
2023-03-11T08:29:19.374Z,4.33
2023-03-11T08:32:25.365Z,4.26
2023-03-11T08:35:31.375Z,4.23
2023-03-11T08:38:37.803Z,4.24
2023-03-11T08:41:43.718Z,4.24
2023-03-11T08:44:49.969Z,4.22
2023-03-11T08:47:55.744Z,4.19
2023-03-11T08:51:03.233Z,4.19
2023-03-11T08:54:09.528Z,4.21
2023-03-11T08:57:15.358Z,4.19
2023-03-11T09:00:23.469Z,4.23
2023-03-11T09:03:31.917Z,4.30
2023-03-11T09:06:37.657Z,4.36
2023-03-11T09:09:43.414Z,4.45
2023-03-11T09:12:49.247Z,4.51
2023-03-11T09:15:56.128Z,4.57
2023-03-11T09:19:07.101Z,4.64
2023-03-11T09:22:12.962Z,4.63
2023-03-11T09:25:19.025Z,4.57
2023-03-11T09:28:24.881Z,4.57
2023-03-11T09:31:30.777Z,4.62
2023-03-11T09:34:36.587Z,4.68
2023-03-11T09:37:42.562Z,4.71
2023-03-11T09:40:58.416Z,4.70
2023-03-11T09:44:17.822Z,4.69
2023-03-11T09:47:37.014Z,4.66
2023-03-11T09:50:48.862Z,4.65
2023-03-11T09:54:00.998Z,4.65
2023-03-11T09:57:12.304Z,4.71
2023-03-11T10:00:24.994Z,4.77
2023-03-11T10:03:39.903Z,4.88
2023-03-11T10:06:48.304Z,5.01
2023-03-11T10:09:56.839Z,5.01
2023-03-11T10:13:13.405Z,4.99
2023-03-11T10:16:26.066Z,4.88
2023-03-11T10:19:43.556Z,4.75
2023-03-11T10:22:57.802Z,4.74
2023-03-11T10:26:12.893Z,4.69
2023-03-11T10:29:22.855Z,4.68
2023-03-11T10:32:36.092Z,4.62
2023-03-11T10:35:44.861Z,4.53
2023-03-11T10:38:52.992Z,4.43
2023-03-11T10:42:01.515Z,4.32
2023-03-11T10:45:13.930Z,4.23
2023-03-11T10:48:21.663Z,4.21
2023-03-11T10:51:33.730Z,4.27
2023-03-11T10:54:44.199Z,4.35
2023-03-11T10:57:50.050Z,4.48
2023-03-11T11:01:06.341Z,4.51
2023-03-11T11:04:30.769Z,4.44
2023-03-11T11:07:41.189Z,4.31
2023-03-11T11:10:55.375Z,4.27
2023-03-11T11:14:01.960Z,4.30
2023-03-11T11:17:15.477Z,4.26
2023-03-11T11:20:24.122Z,4.20
2023-03-11T11:23:33.426Z,4.11
2023-03-11T11:26:39.292Z,4.06
2023-03-11T11:29:45.851Z,3.95
2023-03-11T11:32:53.999Z,3.83
2023-03-11T11:36:02.577Z,3.67
2023-03-11T11:39:21.364Z,3.52
2023-03-11T11:42:32.272Z,3.46
2023-03-11T11:45:42.009Z,3.30
2023-03-11T11:48:56.742Z,3.15
2023-03-11T11:52:08.315Z,3.04
2023-03-11T11:55:21.961Z,3.00
2023-03-11T11:58:28.751Z,2.94
2023-03-11T12:01:43.741Z,2.91
2023-03-11T12:04:56.294Z,2.87
2023-03-11T12:08:10.958Z,2.84
2023-03-11T12:11:25.292Z,2.81
2023-03-11T12:14:37.214Z,2.74
2023-03-11T12:17:47.390Z,2.63
2023-03-11T12:20:57.030Z,2.58
2023-03-11T12:24:20.146Z,2.52
2023-03-11T12:27:29.864Z,2.42
2023-03-11T12:30:39.200Z,2.36
2023-03-11T12:33:47.949Z,2.26
2023-03-11T12:36:57.248Z,2.18
2023-03-11T12:40:23.192Z,2.16
2023-03-11T12:43:30.187Z,2.14
2023-03-11T12:47:18.747Z,2.18
2023-03-11T12:50:44.772Z,2.10
2023-03-11T12:53:51.337Z,2.02
2023-03-11T12:56:59.077Z,1.89
2023-03-11T13:00:23.292Z,1.78
2023-03-11T13:04:01.579Z,1.71
2023-03-11T13:07:40.889Z,1.64
2023-03-11T13:10:48.837Z,1.59
2023-03-11T13:13:54.649Z,1.61
2023-03-11T13:17:23.857Z,1.61
2023-03-11T13:20:49.821Z,1.63
2023-03-11T13:23:54.775Z,1.62
2023-03-11T13:27:11.734Z,1.58
2023-03-11T13:30:26.415Z,1.58
2023-03-11T13:33:52.746Z,1.53
2023-03-11T13:37:20.188Z,1.49
2023-03-11T13:40:34.462Z,1.45
2023-03-11T13:43:48.113Z,1.47
2023-03-11T13:46:58.461Z,1.50
2023-03-11T13:50:10.311Z,1.49
2023-03-11T13:53:22.765Z,1.46
2023-03-11T13:56:32.613Z,1.43
2023-03-11T13:59:38.578Z,1.41
2023-03-11T14:02:51.219Z,1.40
2023-03-11T14:06:03.121Z,1.43
2023-03-11T14:09:19.809Z,1.47
2023-03-11T14:12:25.553Z,1.50
2023-03-11T14:15:36.425Z,1.54
2023-03-11T14:18:43.614Z,1.53
2023-03-11T14:21:51.500Z,1.55
2023-03-11T14:24:59.114Z,1.53
2023-03-11T14:28:07.809Z,1.53
2023-03-11T14:31:25.748Z,1.52
2023-03-11T14:34:31.938Z,1.46
2023-03-11T14:37:39.459Z,1.38
2023-03-11T14:40:45.249Z,1.35
2023-03-11T14:43:53.863Z,1.36
2023-03-11T14:47:06.116Z,1.31
2023-03-11T14:50:16.571Z,1.25
2023-03-11T14:53:26.333Z,1.27
2023-03-11T14:56:34.453Z,1.24
2023-03-11T14:59:41.768Z,1.22
2023-03-11T15:03:03.567Z,1.21
2023-03-11T15:06:14.337Z,1.21
2023-03-11T15:09:23.283Z,1.18
2023-03-11T15:12:38.509Z,1.14
2023-03-11T15:15:46.244Z,1.12
2023-03-11T15:18:54.548Z,1.09
2023-03-11T15:22:03.818Z,1.06
2023-03-11T15:25:19.472Z,1.02
2023-03-11T15:28:28.977Z,0.99
2023-03-11T15:31:38.013Z,0.98
2023-03-11T15:34:43.770Z,0.97
2023-03-11T15:37:52.591Z,0.95
2023-03-11T15:41:01.456Z,0.92
2023-03-11T15:44:22.499Z,0.87
2023-03-11T15:47:28.434Z,0.80
2023-03-11T15:50:50.503Z,0.77
2023-03-11T15:53:58.376Z,0.79
2023-03-11T15:57:11.176Z,0.78
2023-03-11T16:00:24.421Z,0.74
2023-03-11T16:03:31.481Z,0.72
2023-03-11T16:06:37.688Z,0.75
2023-03-11T16:09:43.410Z,0.76
2023-03-11T16:12:49.684Z,0.78
2023-03-11T16:15:55.788Z,0.77
2023-03-11T16:19:01.703Z,0.74
2023-03-11T16:22:07.790Z,0.72
2023-03-11T16:25:22.279Z,0.74
2023-03-11T16:28:28.184Z,0.75
2023-03-11T16:31:34.445Z,0.76
2023-03-11T16:34:41.639Z,0.76
2023-03-11T16:37:48.261Z,0.79
2023-03-11T16:41:00.516Z,0.79
2023-03-11T16:44:09.611Z,0.75
2023-03-11T16:47:15.818Z,0.76
2023-03-11T16:50:24.395Z,0.81
2023-03-11T16:53:30.506Z,0.85
2023-03-11T16:56:41.700Z,0.80
2023-03-11T16:59:48.359Z,0.75
2023-03-11T17:02:54.259Z,0.70
2023-03-11T17:06:05.912Z,0.73
2023-03-11T17:09:11.949Z,0.79
2023-03-11T17:12:19.208Z,0.84
2023-03-11T17:15:25.534Z,0.82
2023-03-11T17:18:31.309Z,0.79
2023-03-11T17:21:37.253Z,0.75
2023-03-11T17:24:43.716Z,0.74
2023-03-11T17:27:49.676Z,0.72
2023-03-11T17:30:55.531Z,0.72
2023-03-11T17:34:01.596Z,0.69
2023-03-11T17:37:07.584Z,0.66
2023-03-11T17:40:14.985Z,0.64
2023-03-11T17:43:20.809Z,0.62
2023-03-11T17:46:26.789Z,0.60
2023-03-11T17:49:32.620Z,0.59
2023-03-11T17:52:38.882Z,0.59
2023-03-11T17:55:44.738Z,0.58
2023-03-11T17:58:51.444Z,0.58
2023-03-11T18:01:57.820Z,0.56
2023-03-11T18:05:03.843Z,0.54
2023-03-11T18:08:09.905Z,0.51
2023-03-11T18:11:19.302Z,0.49
2023-03-11T18:14:25.300Z,0.49
2023-03-11T18:17:31.173Z,0.49
2023-03-11T18:20:37.656Z,0.48
2023-03-11T18:23:43.908Z,0.46
2023-03-11T18:26:49.750Z,0.47
2023-03-11T18:29:55.663Z,0.45
2023-03-11T18:33:01.603Z,0.44
2023-03-11T18:36:18.933Z,0.44
2023-03-11T18:39:24.858Z,0.42
2023-03-11T18:42:30.711Z,0.38
2023-03-11T18:45:39.888Z,0.37
2023-03-11T18:48:45.700Z,0.35
2023-03-11T18:51:51.760Z,0.34
2023-03-11T18:54:57.618Z,0.32
2023-03-11T18:58:03.471Z,0.27
2023-03-11T19:01:12.493Z,0.23
2023-03-11T19:04:18.366Z,0.22
2023-03-11T19:07:24.136Z,0.22
2023-03-11T19:10:29.874Z,0.18
2023-03-11T19:13:46.301Z,0.17
2023-03-11T19:16:52.870Z,0.16
2023-03-11T19:19:58.734Z,0.19
2023-03-11T19:23:05.387Z,0.20
2023-03-11T19:26:11.656Z,0.21
2023-03-11T19:29:18.226Z,0.19
2023-03-11T19:32:24.466Z,0.18
2023-03-11T19:35:30.350Z,0.18
2023-03-11T19:38:36.823Z,0.14
2023-03-11T19:41:42.688Z,0.13
2023-03-11T19:44:48.547Z,0.13
2023-03-11T19:47:54.651Z,0.13
2023-03-11T19:51:00.449Z,0.17
2023-03-11T19:54:06.422Z,0.24
2023-03-11T19:57:12.614Z,0.29
2023-03-11T20:00:20.715Z,0.30
2023-03-11T20:03:26.868Z,0.31
2023-03-11T20:06:33.164Z,0.23
2023-03-11T20:09:37.479Z,0.14
2023-03-11T20:12:59.622Z,0.08
2023-03-11T20:16:10.645Z,0.02
2023-03-11T20:19:16.668Z,-0.02
2023-03-11T20:22:22.724Z,0.00
2023-03-11T20:25:32.410Z,0.02
2023-03-11T20:28:38.621Z,0.06
2023-03-11T20:31:44.639Z,0.09
2023-03-11T20:34:50.546Z,0.10
2023-03-11T20:37:56.362Z,0.09
2023-03-11T20:41:05.934Z,0.08
2023-03-11T20:44:15.333Z,0.09
2023-03-11T20:47:21.434Z,0.06
2023-03-11T20:50:27.679Z,0.05
2023-03-11T20:53:34.323Z,0.06
2023-03-11T20:56:40.280Z,0.07
2023-03-11T20:59:46.165Z,0.05
2023-03-11T21:02:52.684Z,-0.01
2023-03-11T21:05:58.544Z,-0.03
2023-03-11T21:09:06.866Z,-0.02
2023-03-11T21:12:12.823Z,-0.03
2023-03-11T21:15:18.909Z,-0.03
2023-03-11T21:18:25.021Z,-0.07
2023-03-11T21:21:31.056Z,-0.11
2023-03-11T21:24:37.399Z,-0.16
2023-03-11T21:27:43.170Z,-0.22
2023-03-11T21:30:49.270Z,-0.27
2023-03-11T21:33:55.935Z,-0.31
2023-03-11T21:37:01.935Z,-0.35
2023-03-11T21:40:10.243Z,-0.41
2023-03-11T21:43:16.310Z,-0.47
2023-03-11T21:46:24.305Z,-0.50
2023-03-11T21:49:31.380Z,-0.49
2023-03-11T21:52:37.367Z,-0.52
2023-03-11T21:55:44.226Z,-0.55
2023-03-11T21:58:50.815Z,-0.54
2023-03-11T22:02:01.435Z,-0.58
2023-03-11T22:05:08.978Z,-0.61
2023-03-11T22:08:15.072Z,-0.61
2023-03-11T22:11:21.285Z,-0.63
2023-03-11T22:14:27.360Z,-0.67
2023-03-11T22:17:33.334Z,-0.68
2023-03-11T22:20:40.473Z,-0.69
2023-03-11T22:23:46.826Z,-0.71
2023-03-11T22:26:51.032Z,-0.71
2023-03-11T22:29:56.889Z,-0.73
2023-03-11T22:33:02.750Z,-0.75
2023-03-11T22:36:10.184Z,-0.77
2023-03-11T22:39:16.204Z,-0.77
2023-03-11T22:42:22.001Z,-0.78
2023-03-11T22:45:27.821Z,-0.77
2023-03-11T22:48:34.358Z,-0.78
2023-03-11T22:51:40.251Z,-0.77
2023-03-11T22:54:46.159Z,-0.77
2023-03-11T22:57:52.090Z,-0.75
2023-03-11T23:00:57.821Z,-0.73
2023-03-11T23:04:03.814Z,-0.69
2023-03-11T23:07:09.943Z,-0.67
2023-03-11T23:10:21.035Z,-0.65
2023-03-11T23:13:27.389Z,-0.63
2023-03-11T23:16:33.175Z,-0.63
2023-03-11T23:19:39.007Z,-0.63
2023-03-11T23:22:45.318Z,-0.64
2023-03-11T23:25:49.478Z,-0.61
2023-03-11T23:28:55.786Z,-0.59
2023-03-11T23:32:00.094Z,-0.58
2023-03-11T23:35:07.000Z,-0.59
2023-03-11T23:38:12.830Z,-0.57
2023-03-11T23:41:20.745Z,-0.54
2023-03-11T23:44:26.571Z,-0.55
2023-03-11T23:47:32.426Z,-0.56
2023-03-11T23:50:38.432Z,-0.60
2023-03-11T23:53:44.246Z,-0.59
2023-03-11T23:56:49.954Z,-0.57
2023-03-11T23:59:55.856Z,-0.54
